sensor_id;sensor_type;location;lat;lon;timestamp;temperature;humidity
38788;DHT22;24536;45.488;12.238;2022-10-28T00:00:27;19.20;91.70
38788;DHT22;24536;45.488;12.238;2022-10-28T00:02:52;19.20;91.60
38788;DHT22;24536;45.488;12.238;2022-10-28T00:05:18;19.30;91.60
38788;DHT22;24536;45.488;12.238;2022-10-28T00:07:44;19.20;91.50
38788;DHT22;24536;45.488;12.238;2022-10-28T00:10:09;19.20;91.40
38788;DHT22;24536;45.488;12.238;2022-10-28T00:12:36;19.20;91.40
38788;DHT22;24536;45.488;12.238;2022-10-28T00:15:03;19.10;91.50
38788;DHT22;24536;45.488;12.238;2022-10-28T00:17:29;19.10;91.50
38788;DHT22;24536;45.488;12.238;2022-10-28T00:19:54;19.00;91.50
38788;DHT22;24536;45.488;12.238;2022-10-28T00:22:20;19.00;91.40
38788;DHT22;24536;45.488;12.238;2022-10-28T00:24:46;19.00;91.60
38788;DHT22;24536;45.488;12.238;2022-10-28T00:27:11;19.00;91.40
38788;DHT22;24536;45.488;12.238;2022-10-28T00:29:37;19.00;91.50
38788;DHT22;24536;45.488;12.238;2022-10-28T00:32:03;19.00;91.40
38788;DHT22;24536;45.488;12.238;2022-10-28T00:34:29;19.00;91.40
38788;DHT22;24536;45.488;12.238;2022-10-28T00:36:54;19.10;91.30
38788;DHT22;24536;45.488;12.238;2022-10-28T00:39:22;19.10;91.20
38788;DHT22;24536;45.488;12.238;2022-10-28T00:41:50;19.10;91.10
38788;DHT22;24536;45.488;12.238;2022-10-28T00:44:55;19.10;91.00
38788;DHT22;24536;45.488;12.238;2022-10-28T00:50:40;19.10;90.90
38788;DHT22;24536;45.488;12.238;2022-10-28T00:53:19;19.00;90.80
38788;DHT22;24536;45.488;12.238;2022-10-28T00:55:47;19.00;90.90
38788;DHT22;24536;45.488;12.238;2022-10-28T00:58:13;18.90;91.00
38788;DHT22;24536;45.488;12.238;2022-10-28T01:00:40;18.80;91.00
38788;DHT22;24536;45.488;12.238;2022-10-28T01:03:06;18.80;91.00
38788;DHT22;24536;45.488;12.238;2022-10-28T01:05:35;18.70;91.10
38788;DHT22;24536;45.488;12.238;2022-10-28T01:08:02;18.70;91.10
38788;DHT22;24536;45.488;12.238;2022-10-28T01:24:39;18.50;91.10
38788;DHT22;24536;45.488;12.238;2022-10-28T01:30:13;18.40;91.20
38788;DHT22;24536;45.488;12.238;2022-10-28T01:43:45;18.40;91.30
38788;DHT22;24536;45.488;12.238;2022-10-28T01:46:20;18.30;91.30
38788;DHT22;24536;45.488;12.238;2022-10-28T01:49:13;18.30;91.30
38788;DHT22;24536;45.488;12.238;2022-10-28T01:51:48;18.40;91.20
38788;DHT22;24536;45.488;12.238;2022-10-28T01:54:18;18.40;91.10
38788;DHT22;24536;45.488;12.238;2022-10-28T01:56:46;18.40;91.10
38788;DHT22;24536;45.488;12.238;2022-10-28T01:59:16;18.40;91.00
38788;DHT22;24536;45.488;12.238;2022-10-28T02:01:43;18.30;91.00
38788;DHT22;24536;45.488;12.238;2022-10-28T02:04:09;18.30;91.30
38788;DHT22;24536;45.488;12.238;2022-10-28T02:06:36;18.20;91.10
38788;DHT22;24536;45.488;12.238;2022-10-28T02:12:28;18.20;91.00
38788;DHT22;24536;45.488;12.238;2022-10-28T02:15:24;18.10;90.90
38788;DHT22;24536;45.488;12.238;2022-10-28T02:21:02;18.00;91.10
38788;DHT22;24536;45.488;12.238;2022-10-28T02:23:42;18.00;91.20
38788;DHT22;24536;45.488;12.238;2022-10-28T02:26:16;18.00;91.20
38788;DHT22;24536;45.488;12.238;2022-10-28T02:29:00;18.00;91.10
38788;DHT22;24536;45.488;12.238;2022-10-28T02:31:39;18.00;91.10
38788;DHT22;24536;45.488;12.238;2022-10-28T02:34:11;18.00;91.00
38788;DHT22;24536;45.488;12.238;2022-10-28T02:36:41;17.90;91.00
38788;DHT22;24536;45.488;12.238;2022-10-28T02:39:10;17.90;91.00
38788;DHT22;24536;45.488;12.238;2022-10-28T02:41:40;17.80;91.00
38788;DHT22;24536;45.488;12.238;2022-10-28T02:44:11;17.80;91.10
38788;DHT22;24536;45.488;12.238;2022-10-28T02:46:40;17.80;91.10
38788;DHT22;24536;45.488;12.238;2022-10-28T02:49:10;17.80;91.10
38788;DHT22;24536;45.488;12.238;2022-10-28T02:51:42;17.80;91.10
38788;DHT22;24536;45.488;12.238;2022-10-28T02:54:10;17.80;91.20
38788;DHT22;24536;45.488;12.238;2022-10-28T02:56:39;17.90;91.10
38788;DHT22;24536;45.488;12.238;2022-10-28T02:59:11;17.90;91.10
38788;DHT22;24536;45.488;12.238;2022-10-28T03:01:37;17.90;91.10
38788;DHT22;24536;45.488;12.238;2022-10-28T03:04:04;18.00;91.00
38788;DHT22;24536;45.488;12.238;2022-10-28T03:06:30;18.00;90.90
38788;DHT22;24536;45.488;12.238;2022-10-28T03:08:55;18.00;90.90
38788;DHT22;24536;45.488;12.238;2022-10-28T03:11:22;18.10;90.80
38788;DHT22;24536;45.488;12.238;2022-10-28T03:13:47;18.00;90.70
38788;DHT22;24536;45.488;12.238;2022-10-28T03:16:13;18.00;90.70
38788;DHT22;24536;45.488;12.238;2022-10-28T03:18:39;17.90;90.70
38788;DHT22;24536;45.488;12.238;2022-10-28T03:21:04;17.80;90.80
38788;DHT22;24536;45.488;12.238;2022-10-28T03:23:30;17.80;90.80
38788;DHT22;24536;45.488;12.238;2022-10-28T03:25:56;17.70;90.90
38788;DHT22;24536;45.488;12.238;2022-10-28T03:28:21;17.60;91.00
38788;DHT22;24536;45.488;12.238;2022-10-28T03:30:47;17.60;91.10
38788;DHT22;24536;45.488;12.238;2022-10-28T03:33:13;17.70;91.20
38788;DHT22;24536;45.488;12.238;2022-10-28T03:35:38;17.70;91.20
38788;DHT22;24536;45.488;12.238;2022-10-28T03:38:04;17.70;91.10
38788;DHT22;24536;45.488;12.238;2022-10-28T03:40:30;17.80;91.00
38788;DHT22;24536;45.488;12.238;2022-10-28T03:42:55;17.90;90.90
38788;DHT22;24536;45.488;12.238;2022-10-28T03:45:21;17.90;90.80
38788;DHT22;24536;45.488;12.238;2022-10-28T03:47:47;17.90;90.70
38788;DHT22;24536;45.488;12.238;2022-10-28T03:50:12;17.80;90.50
38788;DHT22;24536;45.488;12.238;2022-10-28T03:52:38;17.80;90.60
38788;DHT22;24536;45.488;12.238;2022-10-28T03:55:04;17.70;90.60
38788;DHT22;24536;45.488;12.238;2022-10-28T03:57:31;17.70;90.70
38788;DHT22;24536;45.488;12.238;2022-10-28T03:59:57;17.70;90.70
38788;DHT22;24536;45.488;12.238;2022-10-28T04:02:23;17.80;90.70
38788;DHT22;24536;45.488;12.238;2022-10-28T04:04:49;17.80;90.70
38788;DHT22;24536;45.488;12.238;2022-10-28T04:07:14;17.80;90.70
38788;DHT22;24536;45.488;12.238;2022-10-28T04:09:40;17.80;90.60
38788;DHT22;24536;45.488;12.238;2022-10-28T04:12:06;17.80;90.50
38788;DHT22;24536;45.488;12.238;2022-10-28T04:14:31;17.90;90.50
38788;DHT22;24536;45.488;12.238;2022-10-28T04:16:57;17.90;90.40
38788;DHT22;24536;45.488;12.238;2022-10-28T04:19:23;17.90;90.40
38788;DHT22;24536;45.488;12.238;2022-10-28T04:21:48;17.90;90.30
38788;DHT22;24536;45.488;12.238;2022-10-28T04:24:14;17.90;90.30
38788;DHT22;24536;45.488;12.238;2022-10-28T04:26:40;17.90;90.30
38788;DHT22;24536;45.488;12.238;2022-10-28T04:29:05;17.90;90.20
38788;DHT22;24536;45.488;12.238;2022-10-28T04:31:31;17.80;90.20
38788;DHT22;24536;45.488;12.238;2022-10-28T04:33:57;17.70;90.30
38788;DHT22;24536;45.488;12.238;2022-10-28T04:36:22;17.60;90.40
38788;DHT22;24536;45.488;12.238;2022-10-28T04:38:48;17.50;90.60
38788;DHT22;24536;45.488;12.238;2022-10-28T04:41:16;17.30;90.80
38788;DHT22;24536;45.488;12.238;2022-10-28T04:43:42;17.30;90.80
38788;DHT22;24536;45.488;12.238;2022-10-28T04:46:08;17.30;90.80
38788;DHT22;24536;45.488;12.238;2022-10-28T04:48:34;17.30;90.80
38788;DHT22;24536;45.488;12.238;2022-10-28T04:51:00;17.30;90.80
38788;DHT22;24536;45.488;12.238;2022-10-28T04:53:26;17.30;90.80
38788;DHT22;24536;45.488;12.238;2022-10-28T04:55:56;17.30;90.80
38788;DHT22;24536;45.488;12.238;2022-10-28T04:58:22;17.30;90.70
38788;DHT22;24536;45.488;12.238;2022-10-28T05:00:48;17.30;90.60
38788;DHT22;24536;45.488;12.238;2022-10-28T05:03:14;17.30;90.60
38788;DHT22;24536;45.488;12.238;2022-10-28T05:05:40;17.30;90.60
38788;DHT22;24536;45.488;12.238;2022-10-28T05:08:06;17.20;90.50
38788;DHT22;24536;45.488;12.238;2022-10-28T05:10:42;17.20;90.40
38788;DHT22;24536;45.488;12.238;2022-10-28T05:13:17;17.20;90.40
38788;DHT22;24536;45.488;12.238;2022-10-28T05:15:42;17.20;90.40
38788;DHT22;24536;45.488;12.238;2022-10-28T05:18:08;17.10;90.40
38788;DHT22;24536;45.488;12.238;2022-10-28T05:20:34;17.20;90.40
38788;DHT22;24536;45.488;12.238;2022-10-28T05:22:59;17.20;90.30
38788;DHT22;24536;45.488;12.238;2022-10-28T05:25:25;17.20;90.20
38788;DHT22;24536;45.488;12.238;2022-10-28T05:27:51;17.30;90.20
38788;DHT22;24536;45.488;12.238;2022-10-28T05:30:17;17.20;90.20
38788;DHT22;24536;45.488;12.238;2022-10-28T05:32:43;17.30;90.20
38788;DHT22;24536;45.488;12.238;2022-10-28T05:35:09;17.40;90.10
38788;DHT22;24536;45.488;12.238;2022-10-28T05:37:35;17.40;90.10
38788;DHT22;24536;45.488;12.238;2022-10-28T05:40:01;17.40;90.00
38788;DHT22;24536;45.488;12.238;2022-10-28T05:42:27;17.50;89.90
38788;DHT22;24536;45.488;12.238;2022-10-28T05:44:53;17.50;89.90
38788;DHT22;24536;45.488;12.238;2022-10-28T05:47:18;17.50;89.90
38788;DHT22;24536;45.488;12.238;2022-10-28T05:49:44;17.50;89.80
38788;DHT22;24536;45.488;12.238;2022-10-28T05:52:10;17.50;89.80
38788;DHT22;24536;45.488;12.238;2022-10-28T05:54:35;17.60;89.80
38788;DHT22;24536;45.488;12.238;2022-10-28T05:57:01;17.60;89.60
38788;DHT22;24536;45.488;12.238;2022-10-28T05:59:26;17.60;89.50
38788;DHT22;24536;45.488;12.238;2022-10-28T06:01:52;17.60;89.40
38788;DHT22;24536;45.488;12.238;2022-10-28T06:04:18;17.60;89.40
38788;DHT22;24536;45.488;12.238;2022-10-28T06:06:43;17.60;89.50
38788;DHT22;24536;45.488;12.238;2022-10-28T06:09:09;17.60;89.50
38788;DHT22;24536;45.488;12.238;2022-10-28T06:11:35;17.60;89.40
38788;DHT22;24536;45.488;12.238;2022-10-28T06:14:01;17.70;89.50
38788;DHT22;24536;45.488;12.238;2022-10-28T06:16:26;17.70;89.40
38788;DHT22;24536;45.488;12.238;2022-10-28T06:18:52;17.70;89.40
38788;DHT22;24536;45.488;12.238;2022-10-28T06:21:18;17.70;89.40
38788;DHT22;24536;45.488;12.238;2022-10-28T06:23:46;17.70;89.70
38788;DHT22;24536;45.488;12.238;2022-10-28T06:26:12;17.70;89.70
38788;DHT22;24536;45.488;12.238;2022-10-28T06:28:38;17.70;89.80
38788;DHT22;24536;45.488;12.238;2022-10-28T06:31:06;17.70;90.00
38788;DHT22;24536;45.488;12.238;2022-10-28T06:33:33;17.70;90.00
38788;DHT22;24536;45.488;12.238;2022-10-28T06:36:00;17.70;90.00
38788;DHT22;24536;45.488;12.238;2022-10-28T06:38:27;17.80;90.00
38788;DHT22;24536;45.488;12.238;2022-10-28T06:40:53;17.80;90.00
38788;DHT22;24536;45.488;12.238;2022-10-28T06:43:19;17.80;89.80
38788;DHT22;24536;45.488;12.238;2022-10-28T06:45:45;17.80;89.70
38788;DHT22;24536;45.488;12.238;2022-10-28T06:48:18;17.80;89.60
38788;DHT22;24536;45.488;12.238;2022-10-28T06:50:44;17.90;90.00
38788;DHT22;24536;45.488;12.238;2022-10-28T06:53:09;18.00;90.00
38788;DHT22;24536;45.488;12.238;2022-10-28T06:55:35;18.10;89.80
38788;DHT22;24536;45.488;12.238;2022-10-28T06:58:04;18.20;89.40
38788;DHT22;24536;45.488;12.238;2022-10-28T07:00:30;18.20;89.00
38788;DHT22;24536;45.488;12.238;2022-10-28T07:02:59;18.20;88.90
38788;DHT22;24536;45.488;12.238;2022-10-28T07:05:26;18.30;89.10
38788;DHT22;24536;45.488;12.238;2022-10-28T07:07:56;18.30;89.30
38788;DHT22;24536;45.488;12.238;2022-10-28T07:10:23;18.30;89.40
38788;DHT22;24536;45.488;12.238;2022-10-28T07:12:51;18.30;89.40
38788;DHT22;24536;45.488;12.238;2022-10-28T07:15:17;18.30;89.40
38788;DHT22;24536;45.488;12.238;2022-10-28T07:17:42;18.30;89.50
38788;DHT22;24536;45.488;12.238;2022-10-28T07:20:09;18.30;89.60
38788;DHT22;24536;45.488;12.238;2022-10-28T07:22:35;18.40;89.70
38788;DHT22;24536;45.488;12.238;2022-10-28T07:25:00;18.40;89.80
38788;DHT22;24536;45.488;12.238;2022-10-28T07:27:26;18.40;89.80
38788;DHT22;24536;45.488;12.238;2022-10-28T07:29:52;18.50;89.70
38788;DHT22;24536;45.488;12.238;2022-10-28T07:32:17;18.50;89.60
38788;DHT22;24536;45.488;12.238;2022-10-28T07:34:43;18.60;89.60
38788;DHT22;24536;45.488;12.238;2022-10-28T07:37:10;18.60;89.50
38788;DHT22;24536;45.488;12.238;2022-10-28T07:39:37;18.70;89.30
38788;DHT22;24536;45.488;12.238;2022-10-28T07:42:03;18.70;89.20
38788;DHT22;24536;45.488;12.238;2022-10-28T07:44:28;18.80;89.20
38788;DHT22;24536;45.488;12.238;2022-10-28T07:46:54;18.80;89.20
38788;DHT22;24536;45.488;12.238;2022-10-28T07:49:20;18.90;89.10
38788;DHT22;24536;45.488;12.238;2022-10-28T07:51:46;18.90;88.90
38788;DHT22;24536;45.488;12.238;2022-10-28T07:54:13;19.00;88.80
38788;DHT22;24536;45.488;12.238;2022-10-28T07:56:39;19.10;88.60
38788;DHT22;24536;45.488;12.238;2022-10-28T07:59:05;19.20;88.30
38788;DHT22;24536;45.488;12.238;2022-10-28T08:01:30;19.30;87.80
38788;DHT22;24536;45.488;12.238;2022-10-28T08:03:56;19.50;87.20
38788;DHT22;24536;45.488;12.238;2022-10-28T08:06:22;19.70;86.80
38788;DHT22;24536;45.488;12.238;2022-10-28T08:08:52;19.80;86.30
38788;DHT22;24536;45.488;12.238;2022-10-28T08:11:19;20.00;85.60
38788;DHT22;24536;45.488;12.238;2022-10-28T08:13:48;20.10;85.50
38788;DHT22;24536;45.488;12.238;2022-10-28T08:16:14;20.30;84.60
38788;DHT22;24536;45.488;12.238;2022-10-28T08:18:40;20.40;83.50
38788;DHT22;24536;45.488;12.238;2022-10-28T08:21:09;20.60;83.70
38788;DHT22;24536;45.488;12.238;2022-10-28T08:23:35;20.70;82.80
38788;DHT22;24536;45.488;12.238;2022-10-28T08:26:01;20.90;82.40
38788;DHT22;24536;45.488;12.238;2022-10-28T08:28:27;21.00;81.80
38788;DHT22;24536;45.488;12.238;2022-10-28T08:30:53;21.20;81.70
38788;DHT22;24536;45.488;12.238;2022-10-28T08:33:24;21.30;81.30
38788;DHT22;24536;45.488;12.238;2022-10-28T08:35:50;21.50;81.10
38788;DHT22;24536;45.488;12.238;2022-10-28T08:38:16;21.60;80.30
38788;DHT22;24536;45.488;12.238;2022-10-28T08:48:53;22.20;79.00
38788;DHT22;24536;45.488;12.238;2022-10-28T08:54:12;22.40;78.10
38788;DHT22;24536;45.488;12.238;2022-10-28T08:56:43;22.60;78.00
38788;DHT22;24536;45.488;12.238;2022-10-28T08:59:32;22.70;77.80
38788;DHT22;24536;45.488;12.238;2022-10-28T09:02:03;22.80;77.30
38788;DHT22;24536;45.488;12.238;2022-10-28T09:04:41;22.90;77.10
38788;DHT22;24536;45.488;12.238;2022-10-28T09:07:16;23.10;76.80
38788;DHT22;24536;45.488;12.238;2022-10-28T09:09:44;23.20;76.30
38788;DHT22;24536;45.488;12.238;2022-10-28T09:12:22;23.30;75.80
38788;DHT22;24536;45.488;12.238;2022-10-28T09:17:52;23.60;75.30
38788;DHT22;24536;45.488;12.238;2022-10-28T09:25:52;24.00;74.90
38788;DHT22;24536;45.488;12.238;2022-10-28T09:31:29;24.30;74.80
38788;DHT22;24536;45.488;12.238;2022-10-28T09:39:54;24.80;72.70
38788;DHT22;24536;45.488;12.238;2022-10-28T09:42:36;24.90;72.50
38788;DHT22;24536;45.488;12.238;2022-10-28T09:45:20;25.10;72.50
38788;DHT22;24536;45.488;12.238;2022-10-28T09:48:02;25.20;72.30
38788;DHT22;24536;45.488;12.238;2022-10-28T09:50:31;25.30;71.90
38788;DHT22;24536;45.488;12.238;2022-10-28T09:55:48;25.50;71.50
38788;DHT22;24536;45.488;12.238;2022-10-28T09:58:14;25.60;70.60
38788;DHT22;24536;45.488;12.238;2022-10-28T10:00:41;25.70;69.70
38788;DHT22;24536;45.488;12.238;2022-10-28T10:03:06;25.70;69.10
38788;DHT22;24536;45.488;12.238;2022-10-28T10:05:38;25.80;68.90
38788;DHT22;24536;45.488;12.238;2022-10-28T10:08:05;25.90;68.90
38788;DHT22;24536;45.488;12.238;2022-10-28T10:10:58;26.10;68.90
38788;DHT22;24536;45.488;12.238;2022-10-28T10:13:35;26.20;68.60
38788;DHT22;24536;45.488;12.238;2022-10-28T10:16:10;26.30;68.60
38788;DHT22;24536;45.488;12.238;2022-10-28T10:18:39;26.40;68.50
38788;DHT22;24536;45.488;12.238;2022-10-28T10:21:11;26.50;68.30
38788;DHT22;24536;45.488;12.238;2022-10-28T10:23:37;26.70;68.10
38788;DHT22;24536;45.488;12.238;2022-10-28T10:26:08;26.70;67.30
38788;DHT22;24536;45.488;12.238;2022-10-28T10:28:46;26.80;66.60
38788;DHT22;24536;45.488;12.238;2022-10-28T10:31:21;26.90;66.60
38788;DHT22;24536;45.488;12.238;2022-10-28T10:33:56;27.10;66.60
38788;DHT22;24536;45.488;12.238;2022-10-28T10:36:24;27.20;66.30
38788;DHT22;24536;45.488;12.238;2022-10-28T10:38:59;27.30;66.40
38788;DHT22;24536;45.488;12.238;2022-10-28T10:41:54;27.40;66.00
38788;DHT22;24536;45.488;12.238;2022-10-28T10:47:14;27.70;65.70
38788;DHT22;24536;45.488;12.238;2022-10-28T10:49:38;27.80;64.60
38788;DHT22;24536;45.488;12.238;2022-10-28T10:52:22;27.80;63.40
38788;DHT22;24536;45.488;12.238;2022-10-28T10:55:05;27.80;60.30
38788;DHT22;24536;45.488;12.238;2022-10-28T10:57:32;27.80;62.50
38788;DHT22;24536;45.488;12.238;2022-10-28T10:59:59;27.90;62.70
38788;DHT22;24536;45.488;12.238;2022-10-28T11:02:33;27.90;62.60
38788;DHT22;24536;45.488;12.238;2022-10-28T11:05:06;28.00;62.50
38788;DHT22;24536;45.488;12.238;2022-10-28T11:07:33;28.30;62.30
38788;DHT22;24536;45.488;12.238;2022-10-28T11:10:01;28.40;61.00
38788;DHT22;24536;45.488;12.238;2022-10-28T11:14:58;28.60;61.10
38788;DHT22;24536;45.488;12.238;2022-10-28T11:17:27;28.80;60.70
38788;DHT22;24536;45.488;12.238;2022-10-28T11:19:56;29.00;60.10
38788;DHT22;24536;45.488;12.238;2022-10-28T11:22:42;29.30;59.60
38788;DHT22;24536;45.488;12.238;2022-10-28T11:28:20;30.80;57.10
38788;DHT22;24536;45.488;12.238;2022-10-28T11:36:39;34.60;49.30
38788;DHT22;24536;45.488;12.238;2022-10-28T11:41:59;36.00;45.60
38788;DHT22;24536;45.488;12.238;2022-10-28T11:44:51;36.60;44.20
38788;DHT22;24536;45.488;12.238;2022-10-28T12:01:36;38.20;40.40
38788;DHT22;24536;45.488;12.238;2022-10-28T12:15:25;37.80;42.50
38788;DHT22;24536;45.488;12.238;2022-10-28T12:18:01;37.50;43.10
38788;DHT22;24536;45.488;12.238;2022-10-28T12:20:34;37.20;43.30
38788;DHT22;24536;45.488;12.238;2022-10-28T12:23:04;36.90;43.80
38788;DHT22;24536;45.488;12.238;2022-10-28T12:25:33;36.70;44.20
38788;DHT22;24536;45.488;12.238;2022-10-28T12:28:04;36.60;44.40
38788;DHT22;24536;45.488;12.238;2022-10-28T12:30:35;36.50;44.40
38788;DHT22;24536;45.488;12.238;2022-10-28T12:33:44;36.50;44.30
38788;DHT22;24536;45.488;12.238;2022-10-28T12:39:40;36.60;43.90
38788;DHT22;24536;45.488;12.238;2022-10-28T12:42:30;36.70;43.50
38788;DHT22;24536;45.488;12.238;2022-10-28T12:45:00;36.80;43.40
38788;DHT22;24536;45.488;12.238;2022-10-28T12:47:39;36.90;43.80
38788;DHT22;24536;45.488;12.238;2022-10-28T12:50:35;37.00;42.90
38788;DHT22;24536;45.488;12.238;2022-10-28T12:58:09;35.90;43.00
38788;DHT22;24536;45.488;12.238;2022-10-28T13:00:43;35.10;44.60
38788;DHT22;24536;45.488;12.238;2022-10-28T13:03:14;34.30;45.20
38788;DHT22;24536;45.488;12.238;2022-10-28T13:10:51;32.20;48.50
38788;DHT22;24536;45.488;12.238;2022-10-28T13:14:02;31.70;49.60
38788;DHT22;24536;45.488;12.238;2022-10-28T13:19:38;30.70;50.90
38788;DHT22;24536;45.488;12.238;2022-10-28T13:22:17;30.40;51.30
38788;DHT22;24536;45.488;12.238;2022-10-28T13:27:57;29.80;52.70
38788;DHT22;24536;45.488;12.238;2022-10-28T13:30:24;29.50;53.40
38788;DHT22;24536;45.488;12.238;2022-10-28T13:35:26;29.00;54.20
38788;DHT22;24536;45.488;12.238;2022-10-28T13:37:53;28.90;54.70
38788;DHT22;24536;45.488;12.238;2022-10-28T13:42:59;28.60;56.10
38788;DHT22;24536;45.488;12.238;2022-10-28T13:45:50;28.40;56.40
38788;DHT22;24536;45.488;12.238;2022-10-28T13:53:37;27.90;57.50
38788;DHT22;24536;45.488;12.238;2022-10-28T13:58:51;27.70;57.50
38788;DHT22;24536;45.488;12.238;2022-10-28T14:01:37;27.60;57.60
38788;DHT22;24536;45.488;12.238;2022-10-28T14:04:04;27.50;58.20
38788;DHT22;24536;45.488;12.238;2022-10-28T14:06:32;27.40;58.60
38788;DHT22;24536;45.488;12.238;2022-10-28T14:08:59;27.20;58.80
38788;DHT22;24536;45.488;12.238;2022-10-28T14:11:26;27.20;59.20
38788;DHT22;24536;45.488;12.238;2022-10-28T14:14:00;27.10;59.60
38788;DHT22;24536;45.488;12.238;2022-10-28T14:16:37;27.10;59.70
38788;DHT22;24536;45.488;12.238;2022-10-28T14:19:13;27.00;59.90
38788;DHT22;24536;45.488;12.238;2022-10-28T14:21:51;27.00;60.10
38788;DHT22;24536;45.488;12.238;2022-10-28T14:24:39;26.90;60.20
38788;DHT22;24536;45.488;12.238;2022-10-28T14:29:52;26.80;60.20
38788;DHT22;24536;45.488;12.238;2022-10-28T14:38:16;26.70;61.10
38788;DHT22;24536;45.488;12.238;2022-10-28T14:40:53;26.60;61.10
38788;DHT22;24536;45.488;12.238;2022-10-28T14:48:40;26.40;61.80
38788;DHT22;24536;45.488;12.238;2022-10-28T14:51:16;26.40;62.30
38788;DHT22;24536;45.488;12.238;2022-10-28T14:53:44;26.30;62.70
38788;DHT22;24536;45.488;12.238;2022-10-28T14:56:18;26.30;62.90
38788;DHT22;24536;45.488;12.238;2022-10-28T14:58:44;26.30;63.50
38788;DHT22;24536;45.488;12.238;2022-10-28T15:01:25;26.20;63.70
38788;DHT22;24536;45.488;12.238;2022-10-28T15:03:55;26.20;64.00
38788;DHT22;24536;45.488;12.238;2022-10-28T15:06:34;26.10;64.00
38788;DHT22;24536;45.488;12.238;2022-10-28T15:09:26;26.10;64.30
38788;DHT22;24536;45.488;12.238;2022-10-28T15:12:05;26.00;64.50
38788;DHT22;24536;45.488;12.238;2022-10-28T15:14:37;25.90;64.70
38788;DHT22;24536;45.488;12.238;2022-10-28T15:17:19;25.90;64.80
38788;DHT22;24536;45.488;12.238;2022-10-28T15:19:48;25.90;64.90
38788;DHT22;24536;45.488;12.238;2022-10-28T15:22:21;25.80;64.70
38788;DHT22;24536;45.488;12.238;2022-10-28T15:24:58;25.80;64.80
38788;DHT22;24536;45.488;12.238;2022-10-28T15:27:35;25.70;64.90
38788;DHT22;24536;45.488;12.238;2022-10-28T15:30:03;25.60;65.10
38788;DHT22;24536;45.488;12.238;2022-10-28T15:32:31;25.50;65.50
38788;DHT22;24536;45.488;12.238;2022-10-28T15:34:57;25.50;65.70
38788;DHT22;24536;45.488;12.238;2022-10-28T15:37:28;25.40;66.20
38788;DHT22;24536;45.488;12.238;2022-10-28T15:40:35;25.40;66.50
38788;DHT22;24536;45.488;12.238;2022-10-28T15:43:06;25.40;67.30
38788;DHT22;24536;45.488;12.238;2022-10-28T15:45:41;25.30;67.70
38788;DHT22;24536;45.488;12.238;2022-10-28T15:48:12;25.20;68.00
38788;DHT22;24536;45.488;12.238;2022-10-28T15:50:39;25.10;68.60
38788;DHT22;24536;45.488;12.238;2022-10-28T15:53:32;25.00;68.90
38788;DHT22;24536;45.488;12.238;2022-10-28T15:56:21;25.00;69.20
38788;DHT22;24536;45.488;12.238;2022-10-28T16:01:28;24.80;69.90
38788;DHT22;24536;45.488;12.238;2022-10-28T16:03:54;24.80;70.40
38788;DHT22;24536;45.488;12.238;2022-10-28T16:08:46;24.70;71.40
38788;DHT22;24536;45.488;12.238;2022-10-28T16:11:16;24.60;71.80
38788;DHT22;24536;45.488;12.238;2022-10-28T16:13:47;24.50;72.10
38788;DHT22;24536;45.488;12.238;2022-10-28T16:16:29;24.50;72.40
38788;DHT22;24536;45.488;12.238;2022-10-28T16:19:08;24.40;72.70
38788;DHT22;24536;45.488;12.238;2022-10-28T16:21:35;24.30;72.80
38788;DHT22;24536;45.488;12.238;2022-10-28T16:24:02;24.30;72.90
38788;DHT22;24536;45.488;12.238;2022-10-28T16:26:30;24.20;73.20
38788;DHT22;24536;45.488;12.238;2022-10-28T16:28:56;24.20;73.60
38788;DHT22;24536;45.488;12.238;2022-10-28T16:31:24;24.10;73.90
38788;DHT22;24536;45.488;12.238;2022-10-28T16:33:51;24.10;74.30
38788;DHT22;24536;45.488;12.238;2022-10-28T16:36:17;24.00;74.70
38788;DHT22;24536;45.488;12.238;2022-10-28T16:38:43;24.00;75.00
38788;DHT22;24536;45.488;12.238;2022-10-28T16:41:18;23.90;75.30
38788;DHT22;24536;45.488;12.238;2022-10-28T16:43:44;23.80;75.60
38788;DHT22;24536;45.488;12.238;2022-10-28T16:46:11;23.80;75.80
38788;DHT22;24536;45.488;12.238;2022-10-28T16:48:37;23.80;76.10
38788;DHT22;24536;45.488;12.238;2022-10-28T16:51:09;23.70;76.40
38788;DHT22;24536;45.488;12.238;2022-10-28T16:53:36;23.70;77.20
38788;DHT22;24536;45.488;12.238;2022-10-28T16:56:03;23.60;76.80
38788;DHT22;24536;45.488;12.238;2022-10-28T16:58:30;23.60;77.10
38788;DHT22;24536;45.488;12.238;2022-10-28T17:00:58;23.60;77.40
38788;DHT22;24536;45.488;12.238;2022-10-28T17:03:24;23.50;77.70
38788;DHT22;24536;45.488;12.238;2022-10-28T17:05:50;23.50;78.00
38788;DHT22;24536;45.488;12.238;2022-10-28T17:08:16;23.50;78.30
38788;DHT22;24536;45.488;12.238;2022-10-28T17:10:42;23.40;78.60
38788;DHT22;24536;45.488;12.238;2022-10-28T17:13:12;23.40;78.90
38788;DHT22;24536;45.488;12.238;2022-10-28T17:15:38;23.40;79.30
38788;DHT22;24536;45.488;12.238;2022-10-28T17:18:04;23.30;79.70
38788;DHT22;24536;45.488;12.238;2022-10-28T17:20:30;23.30;79.90
38788;DHT22;24536;45.488;12.238;2022-10-28T17:22:56;23.30;80.20
38788;DHT22;24536;45.488;12.238;2022-10-28T17:25:23;23.20;80.50
38788;DHT22;24536;45.488;12.238;2022-10-28T17:27:50;23.20;80.70
38788;DHT22;24536;45.488;12.238;2022-10-28T17:30:16;23.10;80.90
38788;DHT22;24536;45.488;12.238;2022-10-28T17:32:43;23.10;81.20
38788;DHT22;24536;45.488;12.238;2022-10-28T17:35:09;23.10;81.40
38788;DHT22;24536;45.488;12.238;2022-10-28T17:37:35;23.00;81.60
38788;DHT22;24536;45.488;12.238;2022-10-28T17:40:01;23.00;81.80
38788;DHT22;24536;45.488;12.238;2022-10-28T17:42:27;23.00;82.10
38788;DHT22;24536;45.488;12.238;2022-10-28T17:44:53;22.90;82.30
38788;DHT22;24536;45.488;12.238;2022-10-28T17:47:18;22.90;82.50
38788;DHT22;24536;45.488;12.238;2022-10-28T17:49:44;22.90;82.80
38788;DHT22;24536;45.488;12.238;2022-10-28T17:52:11;22.90;83.00
38788;DHT22;24536;45.488;12.238;2022-10-28T17:54:36;22.80;83.30
38788;DHT22;24536;45.488;12.238;2022-10-28T17:57:02;22.80;83.50
38788;DHT22;24536;45.488;12.238;2022-10-28T17:59:28;22.80;83.70
38788;DHT22;24536;45.488;12.238;2022-10-28T18:01:53;22.70;83.90
38788;DHT22;24536;45.488;12.238;2022-10-28T18:04:19;22.70;84.10
38788;DHT22;24536;45.488;12.238;2022-10-28T18:06:51;22.70;84.30
38788;DHT22;24536;45.488;12.238;2022-10-28T18:09:18;22.70;84.50
38788;DHT22;24536;45.488;12.238;2022-10-28T18:11:43;22.60;84.60
38788;DHT22;24536;45.488;12.238;2022-10-28T18:14:09;22.60;84.80